sensor_id;sensor_type;location;lat;lon;timestamp;temperature;humidity
41694;DHT22;27377;50.666;9.150;2022-09-09T00:02:35;17.10;99.90
41694;DHT22;27377;50.666;9.150;2022-09-09T00:04:42;17.10;99.90
41694;DHT22;27377;50.666;9.150;2022-09-09T00:10:27;17.10;99.90
41694;DHT22;27377;50.666;9.150;2022-09-09T00:13:16;17.10;99.90
41694;DHT22;27377;50.666;9.150;2022-09-09T00:15:59;17.10;99.90
41694;DHT22;27377;50.666;9.150;2022-09-09T00:19:11;17.10;99.90
41694;DHT22;27377;50.666;9.150;2022-09-09T00:21:15;17.10;99.90
41694;DHT22;27377;50.666;9.150;2022-09-09T00:23:48;17.10;99.90
41694;DHT22;27377;50.666;9.150;2022-09-09T00:29:18;17.20;99.90
41694;DHT22;27377;50.666;9.150;2022-09-09T00:31:45;17.20;99.90
41694;DHT22;27377;50.666;9.150;2022-09-09T00:34:19;17.20;99.90
41694;DHT22;27377;50.666;9.150;2022-09-09T00:36:49;17.10;99.90
41694;DHT22;27377;50.666;9.150;2022-09-09T00:39:38;17.10;99.90
41694;DHT22;27377;50.666;9.150;2022-09-09T00:50:00;17.00;99.90
41694;DHT22;27377;50.666;9.150;2022-09-09T00:55:19;17.00;99.90
41694;DHT22;27377;50.666;9.150;2022-09-09T00:57:49;17.00;99.90
41694;DHT22;27377;50.666;9.150;2022-09-09T01:08:27;17.00;99.90
41694;DHT22;27377;50.666;9.150;2022-09-09T01:10:56;17.00;99.90
41694;DHT22;27377;50.666;9.150;2022-09-09T01:13:29;17.00;99.90
41694;DHT22;27377;50.666;9.150;2022-09-09T01:16:00;17.00;99.90
41694;DHT22;27377;50.666;9.150;2022-09-09T01:18:49;17.00;99.90
41694;DHT22;27377;50.666;9.150;2022-09-09T01:21:39;17.00;99.90
41694;DHT22;27377;50.666;9.150;2022-09-09T01:24:31;17.00;99.90
41694;DHT22;27377;50.666;9.150;2022-09-09T01:27:02;17.00;99.90
41694;DHT22;27377;50.666;9.150;2022-09-09T01:29:29;17.00;99.90
41694;DHT22;27377;50.666;9.150;2022-09-09T01:32:02;17.00;99.90
41694;DHT22;27377;50.666;9.150;2022-09-09T01:34:33;17.00;99.90
41694;DHT22;27377;50.666;9.150;2022-09-09T01:37:07;17.00;99.90
41694;DHT22;27377;50.666;9.150;2022-09-09T01:39:34;16.90;99.90
41694;DHT22;27377;50.666;9.150;2022-09-09T01:42:01;16.90;99.90
41694;DHT22;27377;50.666;9.150;2022-09-09T01:44:28;16.90;99.90
41694;DHT22;27377;50.666;9.150;2022-09-09T01:46:55;16.90;99.90
41694;DHT22;27377;50.666;9.150;2022-09-09T01:49:21;16.90;99.90
41694;DHT22;27377;50.666;9.150;2022-09-09T01:51:50;16.90;99.90
41694;DHT22;27377;50.666;9.150;2022-09-09T01:54:17;16.90;99.90
41694;DHT22;27377;50.666;9.150;2022-09-09T01:57:15;16.90;99.90
41694;DHT22;27377;50.666;9.150;2022-09-09T01:59:56;16.90;99.90
41694;DHT22;27377;50.666;9.150;2022-09-09T02:07:48;16.90;99.90
41694;DHT22;27377;50.666;9.150;2022-09-09T02:10:24;16.90;99.90
41694;DHT22;27377;50.666;9.150;2022-09-09T02:13:04;16.90;99.90
41694;DHT22;27377;50.666;9.150;2022-09-09T02:18:07;16.80;99.90
41694;DHT22;27377;50.666;9.150;2022-09-09T02:20:36;16.80;99.90
41694;DHT22;27377;50.666;9.150;2022-09-09T02:23:04;16.80;99.90
41694;DHT22;27377;50.666;9.150;2022-09-09T02:25:30;16.80;99.90
41694;DHT22;27377;50.666;9.150;2022-09-09T02:27:57;16.80;99.90
41694;DHT22;27377;50.666;9.150;2022-09-09T02:30:28;16.80;99.90
41694;DHT22;27377;50.666;9.150;2022-09-09T02:32:56;16.80;99.90
41694;DHT22;27377;50.666;9.150;2022-09-09T02:35:24;16.80;99.90
41694;DHT22;27377;50.666;9.150;2022-09-09T02:37:53;16.80;99.90
41694;DHT22;27377;50.666;9.150;2022-09-09T02:40:23;16.80;99.90
41694;DHT22;27377;50.666;9.150;2022-09-09T02:42:49;16.80;99.90
41694;DHT22;27377;50.666;9.150;2022-09-09T02:45:22;16.80;99.90
41694;DHT22;27377;50.666;9.150;2022-09-09T02:48:17;16.80;99.90
41694;DHT22;27377;50.666;9.150;2022-09-09T02:50:56;16.70;99.90
41694;DHT22;27377;50.666;9.150;2022-09-09T02:53:47;16.70;99.90
41694;DHT22;27377;50.666;9.150;2022-09-09T02:56:18;16.70;99.90
41694;DHT22;27377;50.666;9.150;2022-09-09T02:58:45;16.70;99.90
41694;DHT22;27377;50.666;9.150;2022-09-09T03:01:12;16.70;99.90
41694;DHT22;27377;50.666;9.150;2022-09-09T03:03:37;16.70;99.90
41694;DHT22;27377;50.666;9.150;2022-09-09T03:06:03;16.70;99.90
41694;DHT22;27377;50.666;9.150;2022-09-09T03:08:31;16.60;99.90
41694;DHT22;27377;50.666;9.150;2022-09-09T03:10:58;16.60;99.90
41694;DHT22;27377;50.666;9.150;2022-09-09T03:13:26;16.60;99.90
41694;DHT22;27377;50.666;9.150;2022-09-09T03:15:52;16.60;99.90
41694;DHT22;27377;50.666;9.150;2022-09-09T03:18:18;16.60;99.90
41694;DHT22;27377;50.666;9.150;2022-09-09T03:20:43;16.50;99.90
41694;DHT22;27377;50.666;9.150;2022-09-09T03:23:09;16.50;99.90
41694;DHT22;27377;50.666;9.150;2022-09-09T03:25:34;16.50;99.90
41694;DHT22;27377;50.666;9.150;2022-09-09T03:28:01;16.60;99.90
41694;DHT22;27377;50.666;9.150;2022-09-09T03:30:30;16.60;99.90
41694;DHT22;27377;50.666;9.150;2022-09-09T03:32:56;16.60;99.90
41694;DHT22;27377;50.666;9.150;2022-09-09T03:35:22;16.60;99.90
41694;DHT22;27377;50.666;9.150;2022-09-09T03:37:48;16.60;99.90
41694;DHT22;27377;50.666;9.150;2022-09-09T03:40:14;16.60;99.90
41694;DHT22;27377;50.666;9.150;2022-09-09T03:42:40;16.60;99.90
41694;DHT22;27377;50.666;9.150;2022-09-09T03:45:07;16.60;99.90
41694;DHT22;27377;50.666;9.150;2022-09-09T03:47:34;16.60;99.90
41694;DHT22;27377;50.666;9.150;2022-09-09T03:50:00;16.60;99.90
41694;DHT22;27377;50.666;9.150;2022-09-09T03:52:25;16.60;99.90
41694;DHT22;27377;50.666;9.150;2022-09-09T03:54:52;16.50;99.90
41694;DHT22;27377;50.666;9.150;2022-09-09T03:57:18;16.60;99.90
41694;DHT22;27377;50.666;9.150;2022-09-09T03:59:44;16.60;99.90
41694;DHT22;27377;50.666;9.150;2022-09-09T04:02:09;16.60;99.90
41694;DHT22;27377;50.666;9.150;2022-09-09T04:04:35;16.60;99.90
41694;DHT22;27377;50.666;9.150;2022-09-09T04:07:01;16.70;99.90
41694;DHT22;27377;50.666;9.150;2022-09-09T04:09:26;16.60;99.90
41694;DHT22;27377;50.666;9.150;2022-09-09T04:11:52;16.60;99.90
41694;DHT22;27377;50.666;9.150;2022-09-09T04:14:19;16.60;99.90
41694;DHT22;27377;50.666;9.150;2022-09-09T04:16:44;16.60;99.90
41694;DHT22;27377;50.666;9.150;2022-09-09T04:19:11;16.60;99.90
41694;DHT22;27377;50.666;9.150;2022-09-09T04:21:39;16.60;99.90
41694;DHT22;27377;50.666;9.150;2022-09-09T04:24:06;16.60;99.90
41694;DHT22;27377;50.666;9.150;2022-09-09T04:26:33;16.60;99.90
41694;DHT22;27377;50.666;9.150;2022-09-09T04:28:58;16.60;99.90
41694;DHT22;27377;50.666;9.150;2022-09-09T04:31:24;16.60;99.90
41694;DHT22;27377;50.666;9.150;2022-09-09T04:33:50;16.60;99.90
41694;DHT22;27377;50.666;9.150;2022-09-09T04:36:16;16.60;99.90
41694;DHT22;27377;50.666;9.150;2022-09-09T04:38:43;16.50;99.90
41694;DHT22;27377;50.666;9.150;2022-09-09T04:41:09;16.50;99.90
41694;DHT22;27377;50.666;9.150;2022-09-09T04:43:37;16.50;99.90
41694;DHT22;27377;50.666;9.150;2022-09-09T04:46:03;16.50;99.90
41694;DHT22;27377;50.666;9.150;2022-09-09T04:48:29;16.50;99.90
41694;DHT22;27377;50.666;9.150;2022-09-09T04:50:56;16.50;99.90
41694;DHT22;27377;50.666;9.150;2022-09-09T04:53:22;16.50;99.90
41694;DHT22;27377;50.666;9.150;2022-09-09T04:55:47;16.40;99.90
41694;DHT22;27377;50.666;9.150;2022-09-09T04:58:14;16.40;99.90
41694;DHT22;27377;50.666;9.150;2022-09-09T05:00:40;16.40;99.90
41694;DHT22;27377;50.666;9.150;2022-09-09T05:03:06;16.40;99.90
41694;DHT22;27377;50.666;9.150;2022-09-09T05:05:34;16.40;99.90
41694;DHT22;27377;50.666;9.150;2022-09-09T05:08:04;16.40;99.90
41694;DHT22;27377;50.666;9.150;2022-09-09T05:10:31;16.40;99.90
41694;DHT22;27377;50.666;9.150;2022-09-09T05:12:57;16.30;99.90
41694;DHT22;27377;50.666;9.150;2022-09-09T05:15:23;16.30;99.90
41694;DHT22;27377;50.666;9.150;2022-09-09T05:17:48;16.30;99.90
41694;DHT22;27377;50.666;9.150;2022-09-09T05:20:14;16.30;99.90
41694;DHT22;27377;50.666;9.150;2022-09-09T05:22:40;16.30;99.90
41694;DHT22;27377;50.666;9.150;2022-09-09T05:25:06;16.30;99.90
41694;DHT22;27377;50.666;9.150;2022-09-09T05:27:34;16.30;99.90
41694;DHT22;27377;50.666;9.150;2022-09-09T05:29:59;16.30;99.90
41694;DHT22;27377;50.666;9.150;2022-09-09T05:32:25;16.30;99.90
41694;DHT22;27377;50.666;9.150;2022-09-09T05:34:51;16.20;99.90
41694;DHT22;27377;50.666;9.150;2022-09-09T05:37:18;16.30;99.90
41694;DHT22;27377;50.666;9.150;2022-09-09T05:39:43;16.30;99.90
41694;DHT22;27377;50.666;9.150;2022-09-09T05:42:09;16.30;99.90
41694;DHT22;27377;50.666;9.150;2022-09-09T05:44:35;16.30;99.90
41694;DHT22;27377;50.666;9.150;2022-09-09T05:47:00;16.30;99.90
41694;DHT22;27377;50.666;9.150;2022-09-09T05:49:26;16.40;99.90
41694;DHT22;27377;50.666;9.150;2022-09-09T05:51:52;16.40;99.90
41694;DHT22;27377;50.666;9.150;2022-09-09T05:54:18;16.40;99.90
41694;DHT22;27377;50.666;9.150;2022-09-09T05:56:44;16.50;99.90
41694;DHT22;27377;50.666;9.150;2022-09-09T05:59:10;16.50;99.90
41694;DHT22;27377;50.666;9.150;2022-09-09T06:01:37;16.50;99.90
41694;DHT22;27377;50.666;9.150;2022-09-09T06:04:06;16.50;99.90
41694;DHT22;27377;50.666;9.150;2022-09-09T06:06:34;16.60;99.90
41694;DHT22;27377;50.666;9.150;2022-09-09T06:09:05;16.60;99.90
41694;DHT22;27377;50.666;9.150;2022-09-09T06:11:36;16.60;99.90
41694;DHT22;27377;50.666;9.150;2022-09-09T06:14:03;16.60;99.90
41694;DHT22;27377;50.666;9.150;2022-09-09T06:16:30;16.60;99.90
41694;DHT22;27377;50.666;9.150;2022-09-09T06:18:58;16.60;99.90
41694;DHT22;27377;50.666;9.150;2022-09-09T06:21:31;16.60;99.90
41694;DHT22;27377;50.666;9.150;2022-09-09T06:23:59;16.60;99.90
41694;DHT22;27377;50.666;9.150;2022-09-09T06:26:33;16.60;99.90
41694;DHT22;27377;50.666;9.150;2022-09-09T06:28:59;16.60;99.90
41694;DHT22;27377;50.666;9.150;2022-09-09T06:31:27;16.70;99.90
41694;DHT22;27377;50.666;9.150;2022-09-09T06:33:56;16.60;99.90
41694;DHT22;27377;50.666;9.150;2022-09-09T06:36:33;16.60;99.90
41694;DHT22;27377;50.666;9.150;2022-09-09T06:38:59;16.70;99.90
41694;DHT22;27377;50.666;9.150;2022-09-09T06:41:28;16.60;99.90
41694;DHT22;27377;50.666;9.150;2022-09-09T06:43:54;16.70;99.90
41694;DHT22;27377;50.666;9.150;2022-09-09T06:46:28;16.70;99.90
41694;DHT22;27377;50.666;9.150;2022-09-09T06:48:56;16.70;99.90
41694;DHT22;27377;50.666;9.150;2022-09-09T06:51:25;16.70;99.90
41694;DHT22;27377;50.666;9.150;2022-09-09T06:53:53;16.60;99.90
41694;DHT22;27377;50.666;9.150;2022-09-09T06:56:23;16.70;99.90
41694;DHT22;27377;50.666;9.150;2022-09-09T06:58:50;16.60;99.90
41694;DHT22;27377;50.666;9.150;2022-09-09T07:01:24;16.60;99.90
41694;DHT22;27377;50.666;9.150;2022-09-09T07:03:52;16.60;99.90
41694;DHT22;27377;50.666;9.150;2022-09-09T07:06:21;16.60;99.90
41694;DHT22;27377;50.666;9.150;2022-09-09T07:08:55;16.50;99.90
41694;DHT22;27377;50.666;9.150;2022-09-09T07:11:22;16.60;99.90
41694;DHT22;27377;50.666;9.150;2022-09-09T07:13:48;16.50;99.90
41694;DHT22;27377;50.666;9.150;2022-09-09T07:16:16;16.50;99.90
41694;DHT22;27377;50.666;9.150;2022-09-09T07:18:43;16.50;99.90
41694;DHT22;27377;50.666;9.150;2022-09-09T07:21:13;16.50;99.90
41694;DHT22;27377;50.666;9.150;2022-09-09T07:23:40;16.50;99.90
41694;DHT22;27377;50.666;9.150;2022-09-09T07:26:10;16.50;99.90
41694;DHT22;27377;50.666;9.150;2022-09-09T07:28:37;16.50;99.90
41694;DHT22;27377;50.666;9.150;2022-09-09T07:31:04;16.50;99.90
41694;DHT22;27377;50.666;9.150;2022-09-09T07:33:31;16.50;99.90
41694;DHT22;27377;50.666;9.150;2022-09-09T07:36:26;16.60;99.90
41694;DHT22;27377;50.666;9.150;2022-09-09T07:38:54;16.60;99.90
41694;DHT22;27377;50.666;9.150;2022-09-09T07:41:38;16.50;99.90
41694;DHT22;27377;50.666;9.150;2022-09-09T07:44:07;16.60;99.90
41694;DHT22;27377;50.666;9.150;2022-09-09T07:46:33;16.60;99.90
41694;DHT22;27377;50.666;9.150;2022-09-09T07:48:59;16.60;99.90
41694;DHT22;27377;50.666;9.150;2022-09-09T07:51:28;16.60;99.90
41694;DHT22;27377;50.666;9.150;2022-09-09T07:54:03;16.60;99.90
41694;DHT22;27377;50.666;9.150;2022-09-09T07:56:30;16.70;99.90
41694;DHT22;27377;50.666;9.150;2022-09-09T07:58:57;16.70;99.90
41694;DHT22;27377;50.666;9.150;2022-09-09T08:01:31;16.80;99.90
41694;DHT22;27377;50.666;9.150;2022-09-09T08:04:00;16.80;99.90
41694;DHT22;27377;50.666;9.150;2022-09-09T08:06:27;16.80;99.90
41694;DHT22;27377;50.666;9.150;2022-09-09T08:08:53;16.80;99.90
41694;DHT22;27377;50.666;9.150;2022-09-09T08:11:21;16.90;99.90
41694;DHT22;27377;50.666;9.150;2022-09-09T08:13:48;16.90;99.90
41694;DHT22;27377;50.666;9.150;2022-09-09T08:16:19;16.90;99.90
41694;DHT22;27377;50.666;9.150;2022-09-09T08:18:49;16.90;99.90
41694;DHT22;27377;50.666;9.150;2022-09-09T08:21:21;16.90;99.90
41694;DHT22;27377;50.666;9.150;2022-09-09T08:23:47;17.00;99.90
41694;DHT22;27377;50.666;9.150;2022-09-09T08:26:18;17.00;99.90
41694;DHT22;27377;50.666;9.150;2022-09-09T08:28:48;17.00;99.90
41694;DHT22;27377;50.666;9.150;2022-09-09T08:31:17;17.00;99.90
41694;DHT22;27377;50.666;9.150;2022-09-09T08:33:44;17.00;99.90
41694;DHT22;27377;50.666;9.150;2022-09-09T08:36:13;17.00;99.90
41694;DHT22;27377;50.666;9.150;2022-09-09T08:38:41;17.00;99.90
41694;DHT22;27377;50.666;9.150;2022-09-09T08:41:37;17.00;99.90
41694;DHT22;27377;50.666;9.150;2022-09-09T08:44:29;17.10;99.90
41694;DHT22;27377;50.666;9.150;2022-09-09T08:53:02;17.10;99.90
41694;DHT22;27377;50.666;9.150;2022-09-09T08:58:13;17.10;99.90
41694;DHT22;27377;50.666;9.150;2022-09-09T09:01:17;17.20;99.90
41694;DHT22;27377;50.666;9.150;2022-09-09T09:03:57;17.20;99.90
41694;DHT22;27377;50.666;9.150;2022-09-09T09:12:02;17.20;99.90
41694;DHT22;27377;50.666;9.150;2022-09-09T09:14:34;17.30;99.90
41694;DHT22;27377;50.666;9.150;2022-09-09T09:17:01;17.30;99.90
41694;DHT22;27377;50.666;9.150;2022-09-09T09:19:29;17.30;99.90
41694;DHT22;27377;50.666;9.150;2022-09-09T09:22:18;17.30;99.90
41694;DHT22;27377;50.666;9.150;2022-09-09T09:27:34;17.30;99.90
41694;DHT22;27377;50.666;9.150;2022-09-09T09:30:10;17.30;99.90
41694;DHT22;27377;50.666;9.150;2022-09-09T09:32:39;17.30;99.90
41694;DHT22;27377;50.666;9.150;2022-09-09T09:35:12;17.40;99.90
41694;DHT22;27377;50.666;9.150;2022-09-09T09:37:40;17.40;99.90
41694;DHT22;27377;50.666;9.150;2022-09-09T09:40:11;17.40;99.90
41694;DHT22;27377;50.666;9.150;2022-09-09T09:42:38;17.40;99.90
41694;DHT22;27377;50.666;9.150;2022-09-09T09:45:29;17.40;99.90
41694;DHT22;27377;50.666;9.150;2022-09-09T09:48:05;17.50;99.90
41694;DHT22;27377;50.666;9.150;2022-09-09T09:50:32;17.50;99.90
41694;DHT22;27377;50.666;9.150;2022-09-09T09:53:00;17.50;99.90
41694;DHT22;27377;50.666;9.150;2022-09-09T09:55:28;17.60;99.90
41694;DHT22;27377;50.666;9.150;2022-09-09T09:58:01;17.60;99.90
41694;DHT22;27377;50.666;9.150;2022-09-09T10:00:27;17.60;99.90
41694;DHT22;27377;50.666;9.150;2022-09-09T10:02:53;17.60;99.90
41694;DHT22;27377;50.666;9.150;2022-09-09T10:05:22;17.60;99.90
41694;DHT22;27377;50.666;9.150;2022-09-09T10:08:12;17.70;99.90
41694;DHT22;27377;50.666;9.150;2022-09-09T10:13:24;17.70;99.90
41694;DHT22;27377;50.666;9.150;2022-09-09T10:18:36;17.80;99.90
41694;DHT22;27377;50.666;9.150;2022-09-09T10:24:13;17.80;99.90
41694;DHT22;27377;50.666;9.150;2022-09-09T10:34:56;17.70;99.90
41694;DHT22;27377;50.666;9.150;2022-09-09T10:37:41;17.70;99.90
41694;DHT22;27377;50.666;9.150;2022-09-09T10:40:27;17.80;99.90
41694;DHT22;27377;50.666;9.150;2022-09-09T10:56:55;18.00;99.90
41694;DHT22;27377;50.666;9.150;2022-09-09T10:59:29;18.00;99.90
41694;DHT22;27377;50.666;9.150;2022-09-09T11:07:37;18.10;98.90
41694;DHT22;27377;50.666;9.150;2022-09-09T11:10:14;18.20;98.30
41694;DHT22;27377;50.666;9.150;2022-09-09T11:12:43;18.20;97.90
41694;DHT22;27377;50.666;9.150;2022-09-09T11:15:34;18.20;97.70
41694;DHT22;27377;50.666;9.150;2022-09-09T11:18:04;18.20;97.50
41694;DHT22;27377;50.666;9.150;2022-09-09T11:20:30;18.30;97.60
41694;DHT22;27377;50.666;9.150;2022-09-09T11:39:38;18.50;97.40
41694;DHT22;27377;50.666;9.150;2022-09-09T11:44:38;18.50;97.00
41694;DHT22;27377;50.666;9.150;2022-09-09T11:47:26;18.40;96.30
41694;DHT22;27377;50.666;9.150;2022-09-09T11:49:55;18.40;96.20
41694;DHT22;27377;50.666;9.150;2022-09-09T11:52:36;18.40;96.50
41694;DHT22;27377;50.666;9.150;2022-09-09T11:55:10;18.40;96.50
41694;DHT22;27377;50.666;9.150;2022-09-09T11:57:38;18.50;95.90
41694;DHT22;27377;50.666;9.150;2022-09-09T12:00:05;18.50;95.70
41694;DHT22;27377;50.666;9.150;2022-09-09T12:02:31;18.50;95.70
41694;DHT22;27377;50.666;9.150;2022-09-09T12:05:01;18.50;95.70
41694;DHT22;27377;50.666;9.150;2022-09-09T12:07:53;18.50;96.10
41694;DHT22;27377;50.666;9.150;2022-09-09T12:10:28;18.40;96.20
41694;DHT22;27377;50.666;9.150;2022-09-09T12:13:17;18.40;96.30
41694;DHT22;27377;50.666;9.150;2022-09-09T12:15:50;18.40;96.80
41694;DHT22;27377;50.666;9.150;2022-09-09T12:18:33;18.40;97.40
41694;DHT22;27377;50.666;9.150;2022-09-09T12:23:45;18.40;97.90
41694;DHT22;27377;50.666;9.150;2022-09-09T12:26:23;18.40;98.00
41694;DHT22;27377;50.666;9.150;2022-09-09T12:36:44;18.50;97.00
41694;DHT22;27377;50.666;9.150;2022-09-09T12:39:33;18.50;97.00
41694;DHT22;27377;50.666;9.150;2022-09-09T12:42:00;18.60;96.60
41694;DHT22;27377;50.666;9.150;2022-09-09T12:44:26;18.60;96.40
41694;DHT22;27377;50.666;9.150;2022-09-09T12:46:57;18.60;95.90
41694;DHT22;27377;50.666;9.150;2022-09-09T12:49:37;18.60;95.60
41694;DHT22;27377;50.666;9.150;2022-09-09T12:52:30;18.60;95.40
41694;DHT22;27377;50.666;9.150;2022-09-09T12:54:58;18.50;95.30
41694;DHT22;27377;50.666;9.150;2022-09-09T12:57:25;18.50;95.40
41694;DHT22;27377;50.666;9.150;2022-09-09T12:59:51;18.50;95.50
41694;DHT22;27377;50.666;9.150;2022-09-09T13:04:45;18.50;95.70
41694;DHT22;27377;50.666;9.150;2022-09-09T13:07:13;18.50;95.90
41694;DHT22;27377;50.666;9.150;2022-09-09T13:09:39;18.50;96.10
41694;DHT22;27377;50.666;9.150;2022-09-09T13:12:06;18.50;96.20
41694;DHT22;27377;50.666;9.150;2022-09-09T13:14:36;18.50;96.30
41694;DHT22;27377;50.666;9.150;2022-09-09T13:17:06;18.50;96.20
41694;DHT22;27377;50.666;9.150;2022-09-09T13:19:36;18.50;96.70
41694;DHT22;27377;50.666;9.150;2022-09-09T13:22:35;18.50;97.20
41694;DHT22;27377;50.666;9.150;2022-09-09T13:27:38;18.50;98.30
41694;DHT22;27377;50.666;9.150;2022-09-09T13:30:40;18.40;98.50
41694;DHT22;27377;50.666;9.150;2022-09-09T13:35:55;18.50;98.80
41694;DHT22;27377;50.666;9.150;2022-09-09T13:38:22;18.50;98.90
41694;DHT22;27377;50.666;9.150;2022-09-09T13:43:28;18.60;98.70
41694;DHT22;27377;50.666;9.150;2022-09-09T13:45:57;18.60;98.40
41694;DHT22;27377;50.666;9.150;2022-09-09T13:48:24;18.60;97.60
41694;DHT22;27377;50.666;9.150;2022-09-09T13:51:50;18.70;97.30
41694;DHT22;27377;50.666;9.150;2022-09-09T13:54:13;18.70;97.20
41694;DHT22;27377;50.666;9.150;2022-09-09T13:56:40;18.70;97.00
41694;DHT22;27377;50.666;9.150;2022-09-09T13:59:09;18.80;96.30
41694;DHT22;27377;50.666;9.150;2022-09-09T14:01:35;18.80;96.20
41694;DHT22;27377;50.666;9.150;2022-09-09T14:04:03;18.80;96.10
41694;DHT22;27377;50.666;9.150;2022-09-09T14:06:29;18.70;95.80
41694;DHT22;27377;50.666;9.150;2022-09-09T14:08:55;18.70;95.80
41694;DHT22;27377;50.666;9.150;2022-09-09T14:11:21;18.70;95.60
41694;DHT22;27377;50.666;9.150;2022-09-09T14:13:47;18.70;95.30
41694;DHT22;27377;50.666;9.150;2022-09-09T14:16:15;18.70;95.00
41694;DHT22;27377;50.666;9.150;2022-09-09T14:18:41;18.70;95.00
41694;DHT22;27377;50.666;9.150;2022-09-09T14:21:07;18.70;95.20
41694;DHT22;27377;50.666;9.150;2022-09-09T14:23:34;18.70;95.30
41694;DHT22;27377;50.666;9.150;2022-09-09T14:25:59;18.70;95.50
41694;DHT22;27377;50.666;9.150;2022-09-09T14:28:25;18.60;95.70
41694;DHT22;27377;50.666;9.150;2022-09-09T14:30:50;18.70;95.70
41694;DHT22;27377;50.666;9.150;2022-09-09T14:33:16;18.70;95.80
41694;DHT22;27377;50.666;9.150;2022-09-09T14:35:43;18.70;96.30
41694;DHT22;27377;50.666;9.150;2022-09-09T14:38:09;18.80;95.70
41694;DHT22;27377;50.666;9.150;2022-09-09T14:40:36;18.80;95.40
41694;DHT22;27377;50.666;9.150;2022-09-09T14:43:03;18.80;95.50
41694;DHT22;27377;50.666;9.150;2022-09-09T14:45:28;18.90;95.30
41694;DHT22;27377;50.666;9.150;2022-09-09T14:47:54;18.90;95.00
41694;DHT22;27377;50.666;9.150;2022-09-09T14:50:21;18.90;94.90
41694;DHT22;27377;50.666;9.150;2022-09-09T14:52:47;19.00;94.80
41694;DHT22;27377;50.666;9.150;2022-09-09T14:55:12;19.00;94.60
41694;DHT22;27377;50.666;9.150;2022-09-09T14:57:38;19.00;94.40
41694;DHT22;27377;50.666;9.150;2022-09-09T15:00:06;19.00;94.40
41694;DHT22;27377;50.666;9.150;2022-09-09T15:02:32;19.00;94.40
41694;DHT22;27377;50.666;9.150;2022-09-09T15:04:58;19.00;94.40
41694;DHT22;27377;50.666;9.150;2022-09-09T15:07:27;19.00;94.40
41694;DHT22;27377;50.666;9.150;2022-09-09T15:09:54;19.00;94.40
41694;DHT22;27377;50.666;9.150;2022-09-09T15:12:20;19.00;94.50
41694;DHT22;27377;50.666;9.150;2022-09-09T15:14:46;19.00;94.30
41694;DHT22;27377;50.666;9.150;2022-09-09T15:17:12;19.00;94.40
41694;DHT22;27377;50.666;9.150;2022-09-09T15:19:37;19.00;94.40
41694;DHT22;27377;50.666;9.150;2022-09-09T15:22:04;19.00;94.30
41694;DHT22;27377;50.666;9.150;2022-09-09T15:24:33;19.00;94.30
41694;DHT22;27377;50.666;9.150;2022-09-09T15:27:00;19.00;94.30
41694;DHT22;27377;50.666;9.150;2022-09-09T15:29:25;18.90;94.20
41694;DHT22;27377;50.666;9.150;2022-09-09T15:31:53;18.90;94.10
41694;DHT22;27377;50.666;9.150;2022-09-09T15:34:19;18.90;94.20
41694;DHT22;27377;50.666;9.150;2022-09-09T15:36:45;18.80;94.30
41694;DHT22;27377;50.666;9.150;2022-09-09T15:39:16;18.80;94.40
41694;DHT22;27377;50.666;9.150;2022-09-09T15:41:43;18.80;94.40
41694;DHT22;27377;50.666;9.150;2022-09-09T15:44:10;18.80;94.50
41694;DHT22;27377;50.666;9.150;2022-09-09T15:46:46;18.80;94.60
41694;DHT22;27377;50.666;9.150;2022-09-09T15:49:14;18.80;94.80
41694;DHT22;27377;50.666;9.150;2022-09-09T15:51:42;18.80;94.60
41694;DHT22;27377;50.666;9.150;2022-09-09T15:54:09;18.80;94.50
41694;DHT22;27377;50.666;9.150;2022-09-09T15:56:35;18.80;94.40
41694;DHT22;27377;50.666;9.150;2022-09-09T15:59:01;18.80;94.40
41694;DHT22;27377;50.666;9.150;2022-09-09T16:01:29;18.80;94.20
41694;DHT22;27377;50.666;9.150;2022-09-09T16:03:56;18.80;94.20
41694;DHT22;27377;50.666;9.150;2022-09-09T16:06:24;18.80;94.30
41694;DHT22;27377;50.666;9.150;2022-09-09T16:08:52;18.90;94.30
41694;DHT22;27377;50.666;9.150;2022-09-09T16:11:26;18.90;94.50
41694;DHT22;27377;50.666;9.150;2022-09-09T16:13:53;18.90;94.50
41694;DHT22;27377;50.666;9.150;2022-09-09T16:16:22;18.90;94.40
41694;DHT22;27377;50.666;9.150;2022-09-09T16:18:53;18.90;94.50
41694;DHT22;27377;50.666;9.150;2022-09-09T16:21:30;18.90;94.30
41694;DHT22;27377;50.666;9.150;2022-09-09T16:23:58;18.90;94.20
41694;DHT22;27377;50.666;9.150;2022-09-09T16:26:29;18.90;94.20
41694;DHT22;27377;50.666;9.150;2022-09-09T16:28:55;18.90;94.30
41694;DHT22;27377;50.666;9.150;2022-09-09T16:31:23;18.80;94.40
41694;DHT22;27377;50.666;9.150;2022-09-09T16:33:49;18.80;94.50
41694;DHT22;27377;50.666;9.150;2022-09-09T16:36:21;18.70;94.60
41694;DHT22;27377;50.666;9.150;2022-09-09T16:38:46;18.70;94.80
41694;DHT22;27377;50.666;9.150;2022-09-09T16:41:14;18.60;94.90
41694;DHT22;27377;50.666;9.150;2022-09-09T16:43:40;18.60;95.10
41694;DHT22;27377;50.666;9.150;2022-09-09T16:46:14;18.60;95.20
41694;DHT22;27377;50.666;9.150;2022-09-09T16:48:41;18.50;95.30
41694;DHT22;27377;50.666;9.150;2022-09-09T16:51:11;18.50;95.40
41694;DHT22;27377;50.666;9.150;2022-09-09T16:53:37;18.50;95.50
41694;DHT22;27377;50.666;9.150;2022-09-09T16:56:15;18.40;95.60
41694;DHT22;27377;50.666;9.150;2022-09-09T16:58:41;18.40;95.80
41694;DHT22;27377;50.666;9.150;2022-09-09T17:01:09;18.40;95.90
41694;DHT22;27377;50.666;9.150;2022-09-09T17:03:36;18.40;96.00
41694;DHT22;27377;50.666;9.150;2022-09-09T17:06:03;18.30;96.10
41694;DHT22;27377;50.666;9.150;2022-09-09T17:08:33;18.30;96.20
41694;DHT22;27377;50.666;9.150;2022-09-09T17:10:59;18.30;96.30
41694;DHT22;27377;50.666;9.150;2022-09-09T17:13:26;18.30;96.30
41694;DHT22;27377;50.666;9.150;2022-09-09T17:15:51;18.30;96.50
41694;DHT22;27377;50.666;9.150;2022-09-09T17:18:17;18.30;96.50
41694;DHT22;27377;50.666;9.150;2022-09-09T17:20:42;18.20;96.50
41694;DHT22;27377;50.666;9.150;2022-09-09T17:23:10;18.20;96.60
41694;DHT22;27377;50.666;9.150;2022-09-09T17:25:36;18.20;96.80
41694;DHT22;27377;50.666;9.150;2022-09-09T17:28:03;18.20;96.60
41694;DHT22;27377;50.666;9.150;2022-09-09T17:30:33;18.20;96.70
41694;DHT22;27377;50.666;9.150;2022-09-09T17:32:59;18.10;96.80
41694;DHT22;27377;50.666;9.150;2022-09-09T17:35:25;18.10;96.80
41694;DHT22;27377;50.666;9.150;2022-09-09T17:37:53;18.10;96.90
41694;DHT22;27377;50.666;9.150;2022-09-09T17:40:18;18.10;97.00
41694;DHT22;27377;50.666;9.150;2022-09-09T17:42:44;18.00;97.00
41694;DHT22;27377;50.666;9.150;2022-09-09T17:45:09;18.00;97.10
41694;DHT22;27377;50.666;9.150;2022-09-09T17:47:35;18.00;97.20
41694;DHT22;27377;50.666;9.150;2022-09-09T17:50:00;18.00;97.30
41694;DHT22;27377;50.666;9.150;2022-09-09T17:52:26;18.00;97.40
41694;DHT22;27377;50.666;9.150;2022-09-09T17:54:52;18.00;97.50